createdAt,value
2018-11-03T00:00:27.844Z,9.00
2018-11-03T00:02:55.940Z,9.00
2018-11-03T00:05:24.013Z,9.00
2018-11-03T00:07:52.133Z,8.90
2018-11-03T00:10:20.275Z,8.90
2018-11-03T00:12:48.599Z,9.00
2018-11-03T00:15:16.788Z,9.00
2018-11-03T00:17:44.943Z,8.90
2018-11-03T00:20:13.091Z,8.90
2018-11-03T00:22:41.275Z,8.90
2018-11-03T00:25:10.211Z,8.90
2018-11-03T00:27:38.313Z,9.00
2018-11-03T00:30:08.435Z,9.00
2018-11-03T00:32:36.602Z,9.00
2018-11-03T00:35:04.833Z,8.90
2018-11-03T00:37:33.035Z,8.90
2018-11-03T00:40:01.132Z,8.80
2018-11-03T00:42:29.428Z,8.80
2018-11-03T00:44:57.596Z,8.80
2018-11-03T00:47:25.780Z,8.80
2018-11-03T00:50:57.299Z,8.80
2018-11-03T00:53:25.391Z,8.90
2018-11-03T00:55:53.615Z,8.90
2018-11-03T00:58:21.736Z,8.80
2018-11-03T01:00:49.933Z,8.80
2018-11-03T01:03:18.108Z,8.80
2018-11-03T01:05:46.267Z,8.80
2018-11-03T01:08:14.448Z,8.80
2018-11-03T01:10:42.648Z,8.70
2018-11-03T01:13:10.784Z,8.70
2018-11-03T01:15:38.959Z,8.70
2018-11-03T01:18:07.152Z,8.70
2018-11-03T01:20:35.343Z,8.70
2018-11-03T01:23:03.498Z,8.70
2018-11-03T01:25:31.666Z,8.70
2018-11-03T01:27:59.855Z,8.70
2018-11-03T01:30:28.004Z,8.70
2018-11-03T01:32:56.176Z,8.70
2018-11-03T01:35:24.306Z,8.80
2018-11-03T01:37:52.435Z,8.80
2018-11-03T01:40:20.635Z,8.80
2018-11-03T01:42:48.783Z,8.80
2018-11-03T01:45:16.935Z,8.80
2018-11-03T01:47:45.072Z,8.80
2018-11-03T01:50:13.222Z,8.80
2018-11-03T01:52:41.868Z,8.70
2018-11-03T01:55:09.939Z,8.70
2018-11-03T01:57:38.537Z,8.70
2018-11-03T02:00:07.735Z,8.70
2018-11-03T02:02:35.944Z,8.70
2018-11-03T02:05:04.104Z,8.70
2018-11-03T02:07:32.272Z,8.70
2018-11-03T02:10:00.448Z,8.70
2018-11-03T02:12:28.627Z,8.70
2018-11-03T02:14:56.777Z,8.60
2018-11-03T02:17:24.974Z,8.60
2018-11-03T02:19:53.148Z,8.60
2018-11-03T02:22:21.332Z,8.60
2018-11-03T02:24:49.516Z,8.50
2018-11-03T02:27:17.651Z,8.40
2018-11-03T02:29:45.839Z,8.40
2018-11-03T02:32:14.017Z,8.30
2018-11-03T02:34:42.217Z,8.30
2018-11-03T02:37:10.397Z,8.30
2018-11-03T02:39:38.540Z,8.40
2018-11-03T02:42:06.707Z,8.30
2018-11-03T02:44:34.877Z,8.30
2018-11-03T02:47:03.072Z,8.30
2018-11-03T02:49:31.243Z,8.30
2018-11-03T02:51:59.419Z,8.20
2018-11-03T02:54:27.642Z,8.30
2018-11-03T02:56:55.781Z,8.30
2018-11-03T02:59:23.990Z,8.30
2018-11-03T03:01:52.116Z,8.30
2018-11-03T03:04:20.284Z,8.30
2018-11-03T03:06:48.513Z,8.40
2018-11-03T03:09:16.697Z,8.40
2018-11-03T03:11:44.917Z,8.40
2018-11-03T03:14:13.139Z,8.40
2018-11-03T03:16:41.337Z,8.30
2018-11-03T03:19:09.451Z,8.30
2018-11-03T03:21:37.628Z,8.30
2018-11-03T03:24:05.798Z,8.30
2018-11-03T03:26:33.880Z,8.30
2018-11-03T03:29:02.093Z,8.30
2018-11-03T03:31:30.247Z,8.30
2018-11-03T03:33:58.479Z,8.40
2018-11-03T03:36:26.641Z,8.40
2018-11-03T03:38:54.824Z,8.40
2018-11-03T03:41:23.030Z,8.40
2018-11-03T03:43:51.172Z,8.40
2018-11-03T03:46:19.360Z,8.40
2018-11-03T03:48:47.526Z,8.40
2018-11-03T03:51:15.735Z,8.40
2018-11-03T03:53:43.900Z,8.40
2018-11-03T03:56:12.035Z,8.40
2018-11-03T03:58:40.418Z,8.40
2018-11-03T04:01:08.609Z,8.40
2018-11-03T04:03:36.964Z,8.40
2018-11-03T04:06:05.185Z,8.40
2018-11-03T04:08:33.343Z,8.50
2018-11-03T04:11:01.506Z,8.50
2018-11-03T04:13:29.680Z,8.60
2018-11-03T04:15:57.888Z,8.60
2018-11-03T04:18:26.019Z,8.60
2018-11-03T04:20:54.164Z,8.60
2018-11-03T04:23:22.294Z,8.60
2018-11-03T04:25:50.433Z,8.60
2018-11-03T04:28:18.657Z,8.60
2018-11-03T04:30:46.816Z,8.50
2018-11-03T04:33:14.962Z,8.60
2018-11-03T04:35:43.147Z,8.60
2018-11-03T04:38:11.333Z,8.60
2018-11-03T04:40:39.501Z,8.60
2018-11-03T04:43:07.694Z,8.60
2018-11-03T04:45:36.021Z,8.60
2018-11-03T04:48:04.047Z,8.60
2018-11-03T04:50:32.243Z,8.60
2018-11-03T04:53:00.365Z,8.60
2018-11-03T04:55:28.549Z,8.60
2018-11-03T04:57:56.733Z,8.50
2018-11-03T05:00:24.921Z,8.60
2018-11-03T05:02:53.068Z,8.60
2018-11-03T05:05:21.217Z,8.50
2018-11-03T05:07:49.311Z,8.60
2018-11-03T05:10:17.551Z,8.60
2018-11-03T05:12:45.654Z,8.60
2018-11-03T05:15:13.846Z,8.60
2018-11-03T05:17:41.998Z,8.60
2018-11-03T05:20:10.055Z,8.60
2018-11-03T05:22:38.157Z,8.60
2018-11-03T05:25:06.335Z,8.60
2018-11-03T05:27:34.484Z,8.60
2018-11-03T05:30:02.599Z,8.60
2018-11-03T05:32:30.755Z,8.60
2018-11-03T05:34:58.927Z,8.60
2018-11-03T05:37:27.132Z,8.70
2018-11-03T05:39:55.291Z,8.60
2018-11-03T05:42:23.454Z,8.70
2018-11-03T05:44:51.666Z,8.60
2018-11-03T05:47:19.794Z,8.70
2018-11-03T05:49:47.969Z,8.70
2018-11-03T05:52:16.206Z,8.70
2018-11-03T05:54:44.373Z,8.70
2018-11-03T05:57:12.492Z,8.70
2018-11-03T05:59:40.684Z,8.70
2018-11-03T06:02:08.847Z,8.60
2018-11-03T06:04:37.053Z,8.60
2018-11-03T06:07:05.193Z,8.60
2018-11-03T06:09:33.403Z,8.60
2018-11-03T06:12:01.536Z,8.70
2018-11-03T06:14:29.736Z,8.60
2018-11-03T06:16:57.879Z,8.60
2018-11-03T06:19:26.077Z,8.60
2018-11-03T06:21:54.241Z,8.60
2018-11-03T06:24:22.601Z,8.60
2018-11-03T06:26:50.807Z,8.60
2018-11-03T06:29:18.988Z,8.50
2018-11-03T06:31:47.200Z,8.50
2018-11-03T06:34:15.327Z,8.50
2018-11-03T06:36:43.503Z,8.50
2018-11-03T06:39:11.681Z,8.50
2018-11-03T06:41:39.820Z,8.50
2018-11-03T06:44:07.897Z,8.50
2018-11-03T06:46:36.133Z,8.60
2018-11-03T06:49:09.924Z,8.60
2018-11-03T06:51:38.047Z,8.60
2018-11-03T06:54:06.176Z,8.60
2018-11-03T06:56:34.832Z,8.70
2018-11-03T06:59:03.310Z,8.80
2018-11-03T07:01:31.643Z,8.80
2018-11-03T07:03:59.751Z,8.90
2018-11-03T07:06:27.924Z,8.90
2018-11-03T07:08:56.084Z,8.90
2018-11-03T07:11:24.208Z,8.90
2018-11-03T07:13:52.517Z,8.90
2018-11-03T07:16:20.619Z,9.00
2018-11-03T07:18:48.820Z,9.00
2018-11-03T07:21:16.968Z,9.00
2018-11-03T07:23:45.140Z,9.00
2018-11-03T07:26:13.222Z,9.10
2018-11-03T07:28:41.375Z,9.20
2018-11-03T07:31:09.463Z,9.20
2018-11-03T07:33:37.685Z,9.30
2018-11-03T07:36:05.835Z,9.30
2018-11-03T07:38:34.046Z,9.40
2018-11-03T07:41:02.304Z,9.40
2018-11-03T07:43:30.388Z,9.50
2018-11-03T07:45:58.524Z,9.70
2018-11-03T07:48:26.745Z,9.90
2018-11-03T07:50:54.910Z,10.00
2018-11-03T07:53:23.041Z,10.20
2018-11-03T07:55:51.203Z,10.30
2018-11-03T07:58:19.399Z,10.60
2018-11-03T08:00:49.162Z,10.80
2018-11-03T08:03:20.819Z,10.90
2018-11-03T08:05:49.788Z,11.10
2018-11-03T08:08:18.640Z,11.30
2018-11-03T08:10:47.433Z,11.40
2018-11-03T08:13:15.615Z,11.30
2018-11-03T08:15:43.834Z,11.30
2018-11-03T08:18:11.939Z,11.20
2018-11-03T08:20:40.131Z,11.20
2018-11-03T08:23:08.344Z,11.30
2018-11-03T08:25:36.499Z,11.30
2018-11-03T08:28:05.312Z,11.10
2018-11-03T08:30:33.415Z,10.90
2018-11-03T08:33:01.724Z,10.90
2018-11-03T08:35:29.888Z,10.90
2018-11-03T08:37:58.085Z,11.00
2018-11-03T08:40:26.219Z,11.00
2018-11-03T08:42:54.307Z,11.00
2018-11-03T08:45:22.491Z,11.10
2018-11-03T08:47:51.413Z,11.10
2018-11-03T08:50:19.630Z,11.20
2018-11-03T08:52:47.769Z,11.20
2018-11-03T08:55:15.963Z,11.20
2018-11-03T08:57:44.091Z,11.10
2018-11-03T09:00:13.567Z,11.10
2018-11-03T09:02:43.878Z,11.00
2018-11-03T09:05:12.605Z,11.00
2018-11-03T09:07:41.823Z,11.00
2018-11-03T09:10:14.128Z,11.00
2018-11-03T09:12:42.395Z,11.10
2018-11-03T09:15:12.207Z,11.10
2018-11-03T09:17:41.204Z,11.20
2018-11-03T09:20:10.572Z,11.20
2018-11-03T09:22:39.344Z,11.20
2018-11-03T09:25:10.280Z,11.10
2018-11-03T09:27:39.276Z,11.10
2018-11-03T09:30:10.067Z,11.20
2018-11-03T09:32:38.236Z,11.30
2018-11-03T09:35:07.202Z,11.50
2018-11-03T09:37:35.571Z,11.50
2018-11-03T09:40:04.147Z,11.60
2018-11-03T09:42:32.502Z,11.60
2018-11-03T09:45:00.739Z,11.40
2018-11-03T09:47:28.944Z,11.50
2018-11-03T09:49:57.152Z,11.70
2018-11-03T09:52:25.855Z,11.80
2018-11-03T09:54:54.200Z,11.70
2018-11-03T09:57:22.474Z,11.80
2018-11-03T09:59:50.923Z,11.80
2018-11-03T10:02:19.232Z,11.70
2018-11-03T10:04:47.451Z,11.70
2018-11-03T10:07:15.722Z,11.90
2018-11-03T10:09:43.899Z,12.20
2018-11-03T10:12:12.116Z,12.30
2018-11-03T10:14:40.356Z,12.40
2018-11-03T10:17:08.653Z,12.50
2018-11-03T10:19:37.720Z,12.60
2018-11-03T10:23:09.674Z,12.70
2018-11-03T10:25:38.131Z,13.10
2018-11-03T10:28:06.362Z,13.20
2018-11-03T10:33:02.572Z,13.80
2018-11-03T10:35:30.637Z,13.80
2018-11-03T10:37:58.804Z,13.70
2018-11-03T10:40:26.988Z,13.40
2018-11-03T10:42:55.213Z,13.30
2018-11-03T10:45:23.470Z,13.30
2018-11-03T10:47:51.597Z,13.30
2018-11-03T10:50:19.795Z,13.40
2018-11-03T10:52:48.389Z,13.40
2018-11-03T10:55:18.902Z,13.30
2018-11-03T10:57:47.956Z,13.30
2018-11-03T11:00:25.261Z,13.30
2018-11-03T11:02:59.982Z,13.20
2018-11-03T11:05:34.233Z,13.40
2018-11-03T11:08:07.653Z,13.60
2018-11-03T11:10:41.307Z,13.50
2018-11-03T11:13:14.728Z,13.70
2018-11-03T11:15:42.845Z,13.50
2018-11-03T11:18:11.132Z,13.40
2018-11-03T11:20:39.501Z,13.30
2018-11-03T11:23:07.700Z,13.20
2018-11-03T11:25:35.885Z,13.20
2018-11-03T11:28:04.130Z,13.20
2018-11-03T11:30:37.504Z,13.10
2018-11-03T11:33:08.611Z,13.20
2018-11-03T11:35:36.675Z,13.40
2018-11-03T11:38:05.485Z,13.10
2018-11-03T11:40:33.777Z,13.00
2018-11-03T11:43:02.225Z,12.90
2018-11-03T11:45:30.415Z,12.80
2018-11-03T11:47:58.617Z,12.40
2018-11-03T11:50:26.740Z,12.30
2018-11-03T11:52:54.811Z,12.30
2018-11-03T11:55:22.913Z,12.40
2018-11-03T11:57:51.117Z,12.30
2018-11-03T12:00:19.460Z,12.40
2018-11-03T12:02:47.519Z,12.50
2018-11-03T12:05:15.628Z,12.50
2018-11-03T12:07:43.728Z,12.40
2018-11-03T12:10:11.955Z,12.30
2018-11-03T12:12:40.035Z,12.40
2018-11-03T12:15:08.837Z,12.40
2018-11-03T12:17:38.061Z,12.40
2018-11-03T12:20:06.457Z,12.40
2018-11-03T12:22:34.547Z,12.40
2018-11-03T12:25:02.757Z,12.20
2018-11-03T12:27:30.880Z,12.20
2018-11-03T12:29:59.068Z,12.30
2018-11-03T12:32:27.553Z,12.30
2018-11-03T12:34:55.683Z,12.40
2018-11-03T12:37:23.802Z,12.40
2018-11-03T12:39:51.907Z,12.50
2018-11-03T12:42:20.017Z,12.50
2018-11-03T12:44:48.223Z,12.40
2018-11-03T12:47:16.424Z,12.40
2018-11-03T12:49:44.593Z,12.40
2018-11-03T12:52:12.762Z,12.30
2018-11-03T12:54:40.846Z,12.30
2018-11-03T12:57:08.956Z,12.30
2018-11-03T12:59:37.049Z,12.30
2018-11-03T13:02:05.807Z,12.30
2018-11-03T13:04:33.903Z,12.40
2018-11-03T13:07:01.972Z,12.40
2018-11-03T13:09:30.139Z,12.40
2018-11-03T13:11:58.305Z,12.40
2018-11-03T13:14:26.392Z,12.30
2018-11-03T13:16:54.656Z,12.20
2018-11-03T13:19:23.320Z,12.20
2018-11-03T13:21:51.508Z,12.30
2018-11-03T13:24:19.672Z,12.30
2018-11-03T13:26:47.779Z,12.10
2018-11-03T13:29:15.895Z,12.10
2018-11-03T13:31:44.072Z,12.00
2018-11-03T13:34:12.184Z,11.90
2018-11-03T13:36:40.293Z,11.80
2018-11-03T13:39:09.301Z,11.80
2018-11-03T13:41:37.498Z,11.60
2018-11-03T13:44:05.720Z,11.60
2018-11-03T13:46:33.810Z,11.60
2018-11-03T13:49:02.297Z,11.60
2018-11-03T13:51:30.417Z,11.60
2018-11-03T13:53:58.547Z,11.60
2018-11-03T13:56:26.641Z,11.50
2018-11-03T13:58:54.918Z,11.40
2018-11-03T14:01:23.193Z,11.30
2018-11-03T14:03:51.296Z,11.30
2018-11-03T14:06:19.395Z,11.30
2018-11-03T14:08:47.503Z,11.40
2018-11-03T14:11:16.757Z,11.40
2018-11-03T14:13:44.865Z,11.50
2018-11-03T14:16:12.999Z,11.50
2018-11-03T14:18:41.567Z,11.50
2018-11-03T14:21:09.900Z,11.40
2018-11-03T14:23:38.134Z,11.40
2018-11-03T14:26:06.485Z,11.30
2018-11-03T14:28:34.712Z,11.20
2018-11-03T14:31:02.832Z,11.10
2018-11-03T14:33:31.036Z,11.10
2018-11-03T14:35:59.240Z,11.10
2018-11-03T14:38:27.679Z,11.20
2018-11-03T14:40:55.819Z,11.30
2018-11-03T14:43:24.068Z,11.40
2018-11-03T14:45:52.337Z,11.30
2018-11-03T14:48:20.573Z,11.20
2018-11-03T14:50:48.742Z,11.20
2018-11-03T14:53:17.026Z,11.10
2018-11-03T14:55:45.235Z,11.00
2018-11-03T14:58:13.352Z,11.00
2018-11-03T15:00:41.557Z,11.10
2018-11-03T15:03:09.684Z,11.10
2018-11-03T15:05:37.875Z,11.00
2018-11-03T15:08:06.128Z,10.90
2018-11-03T15:10:34.789Z,10.80
2018-11-03T15:13:03.119Z,10.80
2018-11-03T15:15:31.233Z,10.80
2018-11-03T15:17:59.520Z,10.90
2018-11-03T15:20:27.875Z,10.80
2018-11-03T15:22:56.331Z,10.90
2018-11-03T15:25:24.722Z,10.90
2018-11-03T15:27:53.088Z,10.90
2018-11-03T15:30:21.291Z,10.90
2018-11-03T15:32:49.513Z,10.90
2018-11-03T15:35:17.694Z,10.80
2018-11-03T15:37:45.835Z,10.80
2018-11-03T15:40:15.294Z,10.80
2018-11-03T15:42:44.082Z,10.80
2018-11-03T15:45:14.492Z,10.80
2018-11-03T15:47:43.073Z,10.80
2018-11-03T15:50:11.719Z,10.80
2018-11-03T15:52:39.924Z,10.80
2018-11-03T15:55:08.146Z,10.80
2018-11-03T15:57:36.579Z,10.80
2018-11-03T16:00:06.323Z,10.80
2018-11-03T16:02:34.438Z,10.90
2018-11-03T16:05:02.711Z,10.90
2018-11-03T16:07:31.072Z,10.80
2018-11-03T16:09:59.301Z,10.70
2018-11-03T16:12:27.658Z,10.70
2018-11-03T16:14:55.812Z,10.70
2018-11-03T16:17:24.611Z,10.70
2018-11-03T16:19:52.805Z,10.70
2018-11-03T16:22:21.063Z,10.60
2018-11-03T16:24:49.294Z,10.60
2018-11-03T16:27:17.483Z,10.60
2018-11-03T16:29:45.779Z,10.60
2018-11-03T16:32:14.039Z,10.70
2018-11-03T16:34:42.281Z,10.70
2018-11-03T16:37:10.388Z,10.70
2018-11-03T16:39:38.475Z,10.60
2018-11-03T16:42:06.718Z,10.60
2018-11-03T16:44:35.003Z,10.60
2018-11-03T16:47:03.492Z,10.60
2018-11-03T16:49:31.688Z,10.60
2018-11-03T16:51:59.984Z,10.50
2018-11-03T16:54:29.672Z,10.50
2018-11-03T16:57:00.468Z,10.60
2018-11-03T16:59:31.264Z,10.60
2018-11-03T17:01:59.438Z,10.60
2018-11-03T17:04:28.671Z,10.60
2018-11-03T17:06:57.987Z,10.50
2018-11-03T17:09:26.291Z,10.60
2018-11-03T17:11:54.480Z,10.50
2018-11-03T17:14:22.678Z,10.80
2018-11-03T17:16:50.869Z,10.70
2018-11-03T17:19:19.904Z,10.60
2018-11-03T17:21:48.845Z,10.60
2018-11-03T17:24:17.063Z,10.60
2018-11-03T17:26:45.275Z,10.70
2018-11-03T17:29:13.409Z,10.60
2018-11-03T17:31:41.589Z,10.60
2018-11-03T17:34:09.910Z,10.50
2018-11-03T17:36:38.013Z,10.50
2018-11-03T17:39:08.139Z,10.50
2018-11-03T17:41:36.365Z,10.50
2018-11-03T17:44:04.668Z,10.40
2018-11-03T17:46:32.853Z,10.40
2018-11-03T17:49:01.004Z,10.40
2018-11-03T17:51:29.256Z,10.40
2018-11-03T17:53:57.451Z,10.50
2018-11-03T17:56:25.805Z,10.40
2018-11-03T17:58:54.028Z,10.40
2018-11-03T18:01:22.416Z,10.40
2018-11-03T18:03:50.612Z,10.40
2018-11-03T18:06:18.897Z,10.40
2018-11-03T18:08:47.077Z,10.40
2018-11-03T18:11:15.422Z,10.30
2018-11-03T18:13:43.619Z,10.30
2018-11-03T18:16:11.692Z,10.40
2018-11-03T18:18:40.399Z,10.30
2018-11-03T18:21:08.704Z,10.40
2018-11-03T18:23:37.303Z,10.30
2018-11-03T18:26:05.517Z,10.30
2018-11-03T18:28:33.819Z,10.30
2018-11-03T18:31:02.092Z,10.30
2018-11-03T18:33:30.363Z,10.30
2018-11-03T18:35:58.452Z,10.30
2018-11-03T18:38:26.684Z,10.40
2018-11-03T18:40:54.884Z,10.40
2018-11-03T18:43:23.641Z,10.40
2018-11-03T18:45:51.955Z,10.40
2018-11-03T18:48:20.424Z,10.50
2018-11-03T18:50:48.607Z,10.40
2018-11-03T18:53:16.811Z,10.40
2018-11-03T18:55:45.337Z,10.40
2018-11-03T18:58:14.612Z,10.50
2018-11-03T19:01:46.062Z,10.50
2018-11-03T19:04:14.728Z,10.50
2018-11-03T19:06:43.263Z,10.50
2018-11-03T19:09:11.738Z,10.50
2018-11-03T19:11:39.885Z,10.60
2018-11-03T19:14:08.171Z,10.50
2018-11-03T19:16:36.471Z,10.50
2018-11-03T19:19:05.011Z,10.50
2018-11-03T19:21:33.297Z,10.50
2018-11-03T19:24:01.467Z,10.50
2018-11-03T19:26:29.645Z,10.50
2018-11-03T19:28:57.783Z,10.50
2018-11-03T19:31:25.946Z,10.50
2018-11-03T19:33:54.172Z,10.50
2018-11-03T19:36:22.441Z,10.50
2018-11-03T19:38:50.751Z,10.50
2018-11-03T19:41:18.954Z,10.50
2018-11-03T19:43:47.245Z,10.50
2018-11-03T19:46:15.684Z,10.50
2018-11-03T19:48:43.883Z,10.70
2018-11-03T19:51:12.155Z,10.80
2018-11-03T19:53:40.331Z,10.70
2018-11-03T19:56:08.775Z,10.70
2018-11-03T19:58:36.940Z,10.60
2018-11-03T20:01:05.465Z,10.60
2018-11-03T20:03:33.721Z,10.50
2018-11-03T20:06:01.829Z,10.50
2018-11-03T20:08:30.029Z,10.60
2018-11-03T20:10:58.195Z,10.60
2018-11-03T20:13:26.480Z,10.60
2018-11-03T20:15:54.641Z,10.70
2018-11-03T20:18:23.449Z,10.60
2018-11-03T20:20:51.656Z,10.80
2018-11-03T20:23:20.093Z,11.10
2018-11-03T20:25:48.262Z,11.10
2018-11-03T20:28:16.473Z,11.30
2018-11-03T20:30:44.881Z,11.20
2018-11-03T20:33:13.067Z,11.30
2018-11-03T20:35:47.698Z,11.10
2018-11-03T20:38:15.976Z,10.90
2018-11-03T20:40:44.299Z,10.80
2018-11-03T20:43:12.479Z,10.70
2018-11-03T20:45:40.738Z,10.70
2018-11-03T20:48:08.864Z,10.70
2018-11-03T20:50:37.415Z,10.70
2018-11-03T20:53:05.948Z,10.70
2018-11-03T20:55:34.253Z,10.70
2018-11-03T20:58:02.572Z,10.70
2018-11-03T21:00:30.677Z,10.80
2018-11-03T21:02:58.898Z,10.80
2018-11-03T21:05:27.046Z,10.80
2018-11-03T21:07:56.052Z,10.80
2018-11-03T21:10:24.211Z,10.80
2018-11-03T21:12:52.383Z,10.80
2018-11-03T21:15:20.744Z,10.70
2018-11-03T21:17:48.931Z,10.60
2018-11-03T21:20:17.263Z,10.70
2018-11-03T21:22:45.414Z,10.70
2018-11-03T21:25:13.658Z,10.70
2018-11-03T21:27:42.823Z,10.70
2018-11-03T21:30:11.869Z,10.60
2018-11-03T21:32:41.453Z,10.60
2018-11-03T21:35:09.641Z,10.60
2018-11-03T21:37:38.205Z,10.60
2018-11-03T21:40:07.157Z,10.60
2018-11-03T21:42:35.309Z,10.60
2018-11-03T21:45:03.622Z,10.70
2018-11-03T21:47:31.732Z,10.60
2018-11-03T21:49:59.903Z,10.70
2018-11-03T21:52:28.238Z,10.60
2018-11-03T21:54:56.476Z,10.60
2018-11-03T21:57:24.669Z,10.60
2018-11-03T21:59:52.808Z,10.60
2018-11-03T22:02:21.086Z,10.70
2018-11-03T22:04:49.244Z,10.70
2018-11-03T22:07:17.577Z,10.70
2018-11-03T22:09:45.663Z,10.70
2018-11-03T22:12:13.916Z,10.70
2018-11-03T22:14:42.036Z,10.60
2018-11-03T22:17:10.223Z,10.60
2018-11-03T22:19:38.412Z,10.60
2018-11-03T22:22:06.584Z,10.60
2018-11-03T22:24:35.724Z,10.60
2018-11-03T22:27:03.876Z,10.60
2018-11-03T22:29:32.032Z,10.60
2018-11-03T22:32:00.254Z,10.60
2018-11-03T22:34:28.400Z,10.60
2018-11-03T22:36:56.643Z,10.50
2018-11-03T22:39:24.807Z,10.50
2018-11-03T22:41:53.199Z,10.50
2018-11-03T22:44:21.367Z,10.50
2018-11-03T22:46:49.677Z,10.50
2018-11-03T22:49:17.868Z,10.50
2018-11-03T22:51:46.093Z,10.50
2018-11-03T22:54:14.213Z,10.60
2018-11-03T22:56:42.311Z,10.50
2018-11-03T22:59:10.732Z,10.50
2018-11-03T23:01:39.058Z,10.50
2018-11-03T23:04:07.268Z,10.40
2018-11-03T23:06:35.523Z,10.40
2018-11-03T23:09:03.640Z,10.30
2018-11-03T23:11:31.844Z,10.30
2018-11-03T23:13:59.972Z,10.30
2018-11-03T23:16:28.160Z,10.30
2018-11-03T23:18:56.358Z,10.30
2018-11-03T23:21:24.495Z,10.30
2018-11-03T23:23:52.690Z,10.20
2018-11-03T23:26:22.240Z,10.20
2018-11-03T23:28:50.476Z,10.20
2018-11-03T23:31:18.695Z,10.10
2018-11-03T23:33:46.787Z,10.10
2018-11-03T23:36:14.947Z,10.10
2018-11-03T23:38:43.032Z,10.10
2018-11-03T23:41:11.203Z,10.10
2018-11-03T23:43:39.308Z,10.10
2018-11-03T23:46:07.480Z,10.10
2018-11-03T23:48:35.637Z,10.10
2018-11-03T23:51:03.782Z,10.10
2018-11-03T23:53:31.911Z,10.10
2018-11-03T23:56:00.066Z,10.10
2018-11-03T23:58:28.241Z,10.10
